LMML/MLA METAR and TAF weather

Enter ICAO airport designator
Station Type Date Time Source
LMML METAR 2021/04/14 20:45 UTC NOAA

LMML 142045Z 08003KT CAVOK 13/08 Q1020 NOSIG


Station Type Date Time Source
LMML Decoded METAR 2021/04/14 20:45 UTC NOAA

Luqa, Malta (LMML) 35-51N 014-29E 91M
Apr 14, 2021 - 04:45 PM EDT / 2021.04.14 2045 UTC
Wind: from the E (080 degrees) at 3 MPH (3 KT):0
Visibility: greater than 7 mile(s):0
Temperature: 55 F (13 C)
Dew Point: 46 F (8 C)
Relative Humidity: 71%
Pressure (altimeter): 30.12 in. Hg (1020 hPa)
ob: LMML 142045Z 08003KT CAVOK 13/08 Q1020 NOSIG
cycle: 21

Station Type Date Time Source
LMML TAF 2021/04/14 18:45 UTC NOAA

TAF TAF LMML 141700Z 1418/1518 VRB05KT 9999 FEW020 PROB40 1421/1506 9000 BKN014
BECMG 1503/1506 13012KT

Example: see airport list